createdAt,value
2023-03-04T00:00:26.715Z,5.70
2023-03-04T00:02:53.620Z,5.70
2023-03-04T00:05:20.469Z,5.80
2023-03-04T00:07:47.372Z,5.70
2023-03-04T00:10:14.335Z,5.70
2023-03-04T00:12:44.130Z,5.70
2023-03-04T00:15:11.418Z,5.70
2023-03-04T00:17:38.287Z,5.70
2023-03-04T00:20:05.544Z,5.70
2023-03-04T00:22:32.358Z,5.70
2023-03-04T00:24:59.206Z,5.70
2023-03-04T00:27:26.491Z,5.70
2023-03-04T00:29:53.347Z,5.60
2023-03-04T00:32:20.435Z,5.70
2023-03-04T00:34:47.290Z,5.60
2023-03-04T00:37:14.229Z,5.60
2023-03-04T00:39:41.218Z,5.60
2023-03-04T00:42:08.044Z,5.60
2023-03-04T00:44:34.908Z,5.60
2023-03-04T00:47:01.777Z,5.70
2023-03-04T00:49:28.569Z,5.70
2023-03-04T00:51:55.390Z,5.70
2023-03-04T00:54:22.433Z,5.70
2023-03-04T00:56:49.234Z,5.70
2023-03-04T00:59:16.384Z,5.60
2023-03-04T01:01:43.221Z,5.60
2023-03-04T01:04:10.011Z,5.60
2023-03-04T01:06:36.902Z,5.60
2023-03-04T01:09:03.856Z,5.60
2023-03-04T01:11:30.764Z,5.60
2023-03-04T01:13:57.608Z,5.60
2023-03-04T01:16:24.605Z,5.60
2023-03-04T01:18:51.474Z,5.60
2023-03-04T01:21:18.390Z,5.70
2023-03-04T01:23:45.289Z,5.60
2023-03-04T01:26:12.118Z,5.70
2023-03-04T01:28:38.950Z,5.60
2023-03-04T01:31:06.023Z,5.60
2023-03-04T01:33:32.860Z,5.60
2023-03-04T01:35:59.681Z,5.60
2023-03-04T01:38:26.649Z,5.60
2023-03-04T01:40:54.276Z,5.60
2023-03-04T01:43:29.596Z,5.60
2023-03-04T01:45:57.619Z,5.60
2023-03-04T01:48:31.672Z,5.60
2023-03-04T01:50:59.553Z,5.60
2023-03-04T01:53:28.076Z,5.60
2023-03-04T01:55:57.703Z,5.60
2023-03-04T01:58:29.093Z,5.60
2023-03-04T02:00:57.556Z,5.60
2023-03-04T02:03:25.379Z,5.60
2023-03-04T02:05:53.685Z,5.60
2023-03-04T02:08:23.140Z,5.60
2023-03-04T02:10:51.150Z,5.60
2023-03-04T02:13:18.323Z,5.60
2023-03-04T02:15:46.291Z,5.60
2023-03-04T02:18:19.510Z,5.60
2023-03-04T02:21:03.788Z,5.60
2023-03-04T02:23:44.265Z,5.60
2023-03-04T02:26:23.177Z,5.60
2023-03-04T02:28:52.341Z,5.60
2023-03-04T02:31:24.391Z,5.60
2023-03-04T02:33:52.973Z,5.60
2023-03-04T02:36:20.569Z,5.60
2023-03-04T02:38:47.445Z,5.60
2023-03-04T02:41:17.822Z,5.60
2023-03-04T02:43:47.054Z,5.60
2023-03-04T02:46:14.134Z,5.60
2023-03-04T02:48:40.976Z,5.60
2023-03-04T02:51:07.926Z,5.60
2023-03-04T02:53:34.818Z,5.60
2023-03-04T02:56:01.765Z,5.60
2023-03-04T02:58:28.709Z,5.60
2023-03-04T03:00:55.861Z,5.60
2023-03-04T03:03:22.681Z,5.50
2023-03-04T03:05:49.879Z,5.60
2023-03-04T03:08:16.690Z,5.50
2023-03-04T03:10:43.515Z,5.50
2023-03-04T03:13:10.358Z,5.50
2023-03-04T03:15:42.101Z,5.50
2023-03-04T03:18:11.958Z,5.50
2023-03-04T03:20:38.800Z,5.50
2023-03-04T03:23:05.809Z,5.40
2023-03-04T03:25:32.663Z,5.40
2023-03-04T03:27:59.911Z,5.40
2023-03-04T03:30:27.157Z,5.40
2023-03-04T03:32:54.014Z,5.40
2023-03-04T03:35:21.321Z,5.30
2023-03-04T03:37:49.105Z,5.30
2023-03-04T03:40:16.410Z,5.30
2023-03-04T03:42:43.289Z,5.30
2023-03-04T03:45:10.648Z,5.30
2023-03-04T03:47:37.445Z,5.30
2023-03-04T03:50:05.099Z,5.30
2023-03-04T03:52:32.069Z,5.30
2023-03-04T03:55:02.086Z,5.20
2023-03-04T03:57:29.789Z,5.20
2023-03-04T03:59:57.119Z,5.20
2023-03-04T04:02:24.368Z,5.20
2023-03-04T04:04:51.228Z,5.20
2023-03-04T04:07:18.101Z,5.20
2023-03-04T04:09:45.035Z,5.20
2023-03-04T04:12:15.139Z,5.20
2023-03-04T04:14:42.201Z,5.20
2023-03-04T04:17:10.181Z,5.20
2023-03-04T04:19:37.403Z,5.20
2023-03-04T04:22:04.342Z,5.20
2023-03-04T04:24:31.153Z,5.20
2023-03-04T04:26:58.210Z,5.20
2023-03-04T04:29:25.016Z,5.20
2023-03-04T04:31:51.934Z,5.20
2023-03-04T04:34:18.792Z,5.20
2023-03-04T04:36:45.688Z,5.20
2023-03-04T04:39:12.900Z,5.20
2023-03-04T04:41:42.506Z,5.20
2023-03-04T04:44:10.789Z,5.20
2023-03-04T04:46:38.435Z,5.20
2023-03-04T04:49:06.524Z,5.20
2023-03-04T04:51:34.850Z,5.20
2023-03-04T04:54:02.560Z,5.20
2023-03-04T04:56:30.056Z,5.20
2023-03-04T04:58:58.665Z,5.10
2023-03-04T05:01:26.057Z,5.10
2023-03-04T05:03:55.752Z,5.10
2023-03-04T05:06:24.306Z,5.10
2023-03-04T05:08:52.064Z,5.10
2023-03-04T05:11:19.628Z,5.10
2023-03-04T05:13:47.658Z,5.10
2023-03-04T05:16:15.866Z,5.10
2023-03-04T05:18:43.190Z,5.10
2023-03-04T05:21:10.627Z,5.10
2023-03-04T05:23:40.196Z,5.10
2023-03-04T05:26:09.407Z,5.10
2023-03-04T05:28:36.556Z,5.10
2023-03-04T05:31:04.287Z,5.10
2023-03-04T05:33:31.212Z,5.10
2023-03-04T05:35:58.560Z,5.10
2023-03-04T05:38:25.816Z,5.00
2023-03-04T05:41:06.766Z,5.00
2023-03-04T05:43:36.072Z,5.00
2023-03-04T05:46:04.216Z,4.90
2023-03-04T05:48:31.155Z,4.90
2023-03-04T05:51:00.108Z,4.90
2023-03-04T05:53:27.863Z,4.80
2023-03-04T05:55:55.071Z,4.80
2023-03-04T05:58:22.054Z,4.80
2023-03-04T06:00:48.988Z,4.80
2023-03-04T06:03:21.615Z,4.70
2023-03-04T06:05:48.912Z,4.70
2023-03-04T06:08:15.874Z,4.70
2023-03-04T06:10:42.834Z,4.70
2023-03-04T06:13:10.257Z,4.70
2023-03-04T06:15:37.553Z,4.80
2023-03-04T06:18:04.518Z,4.80
2023-03-04T06:20:31.631Z,4.70
2023-03-04T06:22:58.537Z,4.80
2023-03-04T06:25:25.676Z,4.80
2023-03-04T06:27:54.172Z,4.80
2023-03-04T06:30:22.348Z,4.80
2023-03-04T06:32:49.382Z,4.80
2023-03-04T06:35:17.113Z,4.80
2023-03-04T06:37:44.404Z,4.80
2023-03-04T06:40:12.014Z,4.80
2023-03-04T06:42:40.491Z,4.80
2023-03-04T06:45:08.452Z,4.90
2023-03-04T06:47:35.376Z,4.90
2023-03-04T06:50:03.695Z,4.90
2023-03-04T06:52:30.887Z,4.90
2023-03-04T06:54:57.776Z,4.90
2023-03-04T06:57:24.729Z,4.90
2023-03-04T06:59:51.524Z,5.00
2023-03-04T07:02:18.331Z,5.00
2023-03-04T07:04:45.156Z,5.10
2023-03-04T07:07:12.608Z,5.10
2023-03-04T07:09:39.537Z,5.20
2023-03-04T07:12:06.451Z,5.20
2023-03-04T07:14:33.351Z,5.20
2023-03-04T07:17:00.228Z,5.30
2023-03-04T07:19:27.067Z,5.30
2023-03-04T07:21:53.935Z,5.30
2023-03-04T07:24:20.862Z,5.40
2023-03-04T07:26:47.634Z,5.40
2023-03-04T07:29:14.579Z,5.50
2023-03-04T07:31:44.316Z,5.50
2023-03-04T07:34:14.397Z,5.50
2023-03-04T07:36:41.755Z,5.50
2023-03-04T07:39:09.377Z,5.60
2023-03-04T07:41:37.292Z,5.60
2023-03-04T07:44:06.067Z,5.70
2023-03-04T07:46:33.543Z,5.80
2023-03-04T07:49:00.377Z,5.90
2023-03-04T07:51:28.016Z,6.00
2023-03-04T07:53:58.177Z,6.00
2023-03-04T07:56:27.779Z,6.10
2023-03-04T07:58:54.799Z,6.20
2023-03-04T08:01:24.544Z,6.20
2023-03-04T08:03:51.908Z,6.30
2023-03-04T08:06:19.758Z,6.50
2023-03-04T08:08:47.694Z,6.60
2023-03-04T08:11:20.110Z,6.60
2023-03-04T08:13:47.775Z,6.70
2023-03-04T08:16:16.780Z,6.70
2023-03-04T08:18:48.438Z,6.60
2023-03-04T08:21:19.423Z,6.60
2023-03-04T08:23:47.243Z,6.60
2023-03-04T08:26:29.700Z,6.60
2023-03-04T08:28:57.895Z,6.60
2023-03-04T08:31:25.157Z,6.50
2023-03-04T08:33:52.961Z,6.50
2023-03-04T08:36:20.757Z,6.50
2023-03-04T08:38:47.611Z,6.40
2023-03-04T08:41:15.561Z,6.40
2023-03-04T08:43:43.869Z,6.30
2023-03-04T08:46:10.780Z,6.30
2023-03-04T08:48:38.866Z,6.20
2023-03-04T08:51:14.413Z,6.20
2023-03-04T08:53:41.730Z,6.20
2023-03-04T08:56:10.192Z,6.10
2023-03-04T08:58:37.385Z,6.00
2023-03-04T09:01:05.193Z,6.00
2023-03-04T09:03:32.120Z,6.00
2023-03-04T09:05:59.098Z,6.00
2023-03-04T09:08:25.895Z,6.00
2023-03-04T09:10:54.454Z,6.00
2023-03-04T09:13:24.581Z,6.00
2023-03-04T09:15:53.576Z,6.10
2023-03-04T09:18:24.020Z,6.10
2023-03-04T09:20:51.751Z,6.10
2023-03-04T09:23:19.371Z,6.10
2023-03-04T09:25:47.510Z,6.20
2023-03-04T09:28:16.365Z,6.40
2023-03-04T09:30:43.742Z,6.60
2023-03-04T09:33:10.863Z,6.80
2023-03-04T09:35:38.056Z,7.00
2023-03-04T09:38:05.332Z,7.20
2023-03-04T09:41:00.802Z,7.40
2023-03-04T09:43:32.063Z,7.60
2023-03-04T09:46:12.854Z,7.70
2023-03-04T09:49:00.001Z,7.80
2023-03-04T09:51:38.778Z,7.80
2023-03-04T09:54:14.441Z,7.90
2023-03-04T09:56:41.803Z,8.00
2023-03-04T09:59:29.845Z,8.00
2023-03-04T10:02:01.634Z,8.10
2023-03-04T10:04:44.785Z,8.20
2023-03-04T10:07:18.837Z,8.30
2023-03-04T10:10:02.053Z,8.30
2023-03-04T10:12:32.994Z,8.30
2023-03-04T10:15:07.320Z,8.30
2023-03-04T10:17:42.424Z,8.40
2023-03-04T10:20:26.375Z,8.40
2023-03-04T10:22:58.452Z,8.30
2023-03-04T10:25:31.575Z,8.30
2023-03-04T10:28:17.551Z,8.20
2023-03-04T10:30:59.496Z,8.20
2023-03-04T10:33:32.809Z,8.10
2023-03-04T10:36:13.598Z,8.00
2023-03-04T10:38:42.044Z,7.90
2023-03-04T10:41:14.958Z,7.60
2023-03-04T10:43:45.406Z,7.40
2023-03-04T10:46:13.080Z,7.30
2023-03-04T10:48:43.420Z,7.40
2023-03-04T10:51:20.121Z,7.60
2023-03-04T10:53:50.225Z,7.90
2023-03-04T10:56:36.020Z,8.40
2023-03-04T10:59:25.656Z,9.00
2023-03-04T11:01:54.635Z,10.00
2023-03-04T11:04:28.130Z,11.70
2023-03-04T11:06:55.474Z,13.30
2023-03-04T11:09:25.264Z,13.50
2023-03-04T11:11:54.575Z,13.00
2023-03-04T11:14:36.669Z,12.20
2023-03-04T11:17:25.726Z,11.30
2023-03-04T11:20:11.511Z,10.30
2023-03-04T11:22:39.889Z,9.50
2023-03-04T11:25:12.784Z,8.80
2023-03-04T11:27:47.880Z,8.40
2023-03-04T11:30:36.393Z,8.10
2023-03-04T11:33:20.227Z,7.90
2023-03-04T11:36:17.959Z,7.80
2023-03-04T11:38:49.236Z,7.90
2023-03-04T11:41:38.358Z,8.20
2023-03-04T11:44:09.091Z,9.20
2023-03-04T11:47:07.116Z,10.60
2023-03-04T11:50:04.718Z,11.50
2023-03-04T11:53:22.260Z,11.60
2023-03-04T11:55:49.033Z,11.10
2023-03-04T11:58:34.100Z,10.60
2023-03-04T12:01:14.215Z,10.30
2023-03-04T12:04:16.504Z,10.20
2023-03-04T12:06:59.014Z,10.20
2023-03-04T12:09:47.970Z,10.60
2023-03-04T12:12:26.846Z,11.70
2023-03-04T12:14:59.561Z,12.70
2023-03-04T12:18:08.939Z,12.80
2023-03-04T12:20:48.524Z,12.60
2023-03-04T12:23:42.665Z,12.00
2023-03-04T12:26:27.919Z,11.50
2023-03-04T12:29:22.902Z,11.10
2023-03-04T12:32:08.249Z,11.20
2023-03-04T12:35:00.643Z,11.40
2023-03-04T12:37:48.348Z,11.80
2023-03-04T12:40:24.493Z,12.50
2023-03-04T12:43:36.422Z,13.10
2023-03-04T12:46:19.813Z,13.10
2023-03-04T12:48:59.055Z,12.70
2023-03-04T12:51:43.999Z,12.10
2023-03-04T12:54:32.654Z,11.50
2023-03-04T12:57:04.590Z,11.00
2023-03-04T12:59:37.689Z,10.70
2023-03-04T13:02:10.658Z,10.50
2023-03-04T13:05:07.801Z,10.40
2023-03-04T13:08:03.369Z,10.60
2023-03-04T13:10:30.790Z,11.00
2023-03-04T13:12:59.864Z,11.10
2023-03-04T13:15:29.020Z,11.10
2023-03-04T13:17:58.171Z,10.90
2023-03-04T13:20:31.043Z,10.60
2023-03-04T13:23:10.222Z,10.30
2023-03-04T13:25:44.296Z,10.00
2023-03-04T13:28:16.048Z,9.80
2023-03-04T13:31:06.780Z,9.60
2023-03-04T13:33:36.368Z,9.50
2023-03-04T13:36:25.790Z,9.40
2023-03-04T13:39:14.546Z,9.40
2023-03-04T13:41:53.783Z,9.30
2023-03-04T13:44:58.462Z,9.30
2023-03-04T13:47:44.416Z,9.00
2023-03-04T13:50:31.694Z,8.80
2023-03-04T13:53:19.020Z,8.70
2023-03-04T13:56:04.917Z,8.60
2023-03-04T13:58:32.028Z,8.70
2023-03-04T14:00:59.201Z,8.90
2023-03-04T14:03:29.711Z,9.30
2023-03-04T14:06:28.487Z,9.60
2023-03-04T14:08:57.834Z,9.90
2023-03-04T14:11:41.694Z,10.00
2023-03-04T14:14:20.354Z,9.90
2023-03-04T14:16:54.888Z,9.50
2023-03-04T14:19:30.867Z,9.10
2023-03-04T14:22:00.135Z,8.70
2023-03-04T14:24:27.310Z,8.30
2023-03-04T14:27:13.090Z,8.10
2023-03-04T14:29:39.962Z,7.90
2023-03-04T14:32:07.766Z,7.90
2023-03-04T14:34:37.956Z,7.90
2023-03-04T14:37:24.398Z,8.00
2023-03-04T14:39:58.504Z,8.40
2023-03-04T14:42:32.128Z,8.60
2023-03-04T14:45:00.789Z,8.70
2023-03-04T14:47:36.219Z,8.80
2023-03-04T14:50:06.377Z,8.80
2023-03-04T14:52:40.918Z,8.80
2023-03-04T14:55:18.761Z,8.90
2023-03-04T14:58:10.249Z,9.00
2023-03-04T15:00:41.160Z,9.20
2023-03-04T15:03:32.199Z,9.40
2023-03-04T15:06:16.459Z,9.20
2023-03-04T15:08:44.290Z,8.90
2023-03-04T15:11:22.641Z,8.70
2023-03-04T15:13:55.251Z,8.40
2023-03-04T15:16:25.389Z,8.10
2023-03-04T15:19:23.405Z,7.90
2023-03-04T15:21:50.304Z,7.70
2023-03-04T15:24:17.189Z,7.50
2023-03-04T15:26:45.992Z,7.40
2023-03-04T15:29:14.652Z,7.30
2023-03-04T15:31:43.680Z,7.20
2023-03-04T15:34:15.475Z,7.00
2023-03-04T15:36:46.139Z,6.80
2023-03-04T15:39:15.418Z,6.70
2023-03-04T15:41:42.774Z,6.60
2023-03-04T15:44:12.214Z,6.50
2023-03-04T15:46:39.358Z,6.40
2023-03-04T15:49:06.257Z,6.40
2023-03-04T15:51:33.173Z,6.40
2023-03-04T15:54:00.955Z,6.40
2023-03-04T15:56:30.938Z,6.40
2023-03-04T15:59:01.188Z,6.40
2023-03-04T16:01:28.170Z,6.40
2023-03-04T16:03:55.273Z,6.30
2023-03-04T16:06:24.452Z,6.30
2023-03-04T16:08:52.282Z,6.20
2023-03-04T16:11:22.190Z,6.10
2023-03-04T16:13:49.496Z,6.00
2023-03-04T16:16:16.856Z,6.00
2023-03-04T16:18:43.906Z,6.00
2023-03-04T16:21:17.494Z,6.00
2023-03-04T16:23:47.269Z,6.00
2023-03-04T16:26:25.672Z,6.00
2023-03-04T16:28:53.328Z,6.00
2023-03-04T16:31:21.772Z,6.00
2023-03-04T16:33:48.788Z,5.90
2023-03-04T16:36:27.679Z,5.90
2023-03-04T16:39:09.487Z,5.90
2023-03-04T16:41:37.116Z,5.90
2023-03-04T16:44:04.158Z,5.90
2023-03-04T16:46:31.303Z,5.80
2023-03-04T16:48:58.242Z,5.80
2023-03-04T16:51:25.540Z,5.70
2023-03-04T16:53:56.256Z,5.70
2023-03-04T16:56:23.829Z,5.60
2023-03-04T16:58:51.292Z,5.60
2023-03-04T17:01:20.387Z,5.60
2023-03-04T17:03:47.784Z,5.50
2023-03-04T17:06:15.934Z,5.50
2023-03-04T17:08:42.922Z,5.50
2023-03-04T17:11:16.885Z,5.50
2023-03-04T17:13:44.736Z,5.50
2023-03-04T17:16:12.696Z,5.40
2023-03-04T17:18:39.703Z,5.40
2023-03-04T17:21:10.471Z,5.30
2023-03-04T17:23:37.602Z,5.30
2023-03-04T17:26:05.275Z,5.20
2023-03-04T17:28:33.061Z,5.20
2023-03-04T17:31:00.012Z,5.10
2023-03-04T17:33:26.935Z,5.00
2023-03-04T17:35:53.914Z,5.00
2023-03-04T17:38:20.991Z,4.90
2023-03-04T17:40:47.916Z,4.90
2023-03-04T17:43:14.788Z,4.90
2023-03-04T17:45:42.585Z,4.90
2023-03-04T17:48:15.045Z,4.90
2023-03-04T17:50:49.945Z,4.90
2023-03-04T17:53:17.350Z,4.90
2023-03-04T17:55:55.757Z,4.90
2023-03-04T17:58:23.922Z,4.90
2023-03-04T18:00:52.800Z,4.90
2023-03-04T18:03:20.032Z,4.90
2023-03-04T18:05:47.461Z,4.90
2023-03-04T18:08:14.301Z,4.90
2023-03-04T18:10:41.321Z,4.90
2023-03-04T18:13:08.645Z,4.90
2023-03-04T18:15:35.573Z,4.90
2023-03-04T18:18:02.492Z,4.90
2023-03-04T18:20:29.442Z,4.90
2023-03-04T18:22:58.568Z,4.90
2023-03-04T18:25:25.906Z,4.80
2023-03-04T18:27:52.833Z,4.90
2023-03-04T18:30:22.914Z,4.90
2023-03-04T18:32:52.517Z,4.90
2023-03-04T18:35:20.253Z,4.90
2023-03-04T18:37:48.970Z,4.90
2023-03-04T18:40:16.515Z,4.90
2023-03-04T18:42:46.401Z,4.80
2023-03-04T18:45:14.331Z,4.80
2023-03-04T18:47:43.968Z,4.80
2023-03-04T18:50:12.621Z,4.80
2023-03-04T18:52:40.041Z,4.70
2023-03-04T18:55:07.409Z,4.70
2023-03-04T18:57:34.423Z,4.70
2023-03-04T19:00:04.554Z,4.70
2023-03-04T19:02:52.268Z,4.70
2023-03-04T19:05:27.428Z,4.70
2023-03-04T19:07:54.582Z,4.70
2023-03-04T19:10:21.618Z,4.70
2023-03-04T19:12:48.580Z,4.60
2023-03-04T19:15:15.766Z,4.60
2023-03-04T19:17:45.865Z,4.60
2023-03-04T19:20:14.055Z,4.60
2023-03-04T19:22:41.957Z,4.60
2023-03-04T19:25:09.806Z,4.60
2023-03-04T19:27:36.801Z,4.60
2023-03-04T19:30:04.944Z,4.60
2023-03-04T19:32:32.032Z,4.60
2023-03-04T19:34:58.983Z,4.60
2023-03-04T19:37:25.812Z,4.60
2023-03-04T19:39:54.408Z,4.60
2023-03-04T19:42:21.880Z,4.60
2023-03-04T19:44:48.828Z,4.50
2023-03-04T19:47:15.829Z,4.50
2023-03-04T19:49:42.631Z,4.50
2023-03-04T19:52:09.473Z,4.50
2023-03-04T19:54:36.858Z,4.40
2023-03-04T19:57:03.930Z,4.40
2023-03-04T19:59:30.780Z,4.40
2023-03-04T20:01:59.663Z,4.40
2023-03-04T20:04:26.664Z,4.30
2023-03-04T20:06:53.709Z,4.30
2023-03-04T20:09:20.824Z,4.30
2023-03-04T20:11:57.675Z,4.30
2023-03-04T20:14:30.312Z,4.30
2023-03-04T20:17:02.672Z,4.30
2023-03-04T20:19:30.731Z,4.30
2023-03-04T20:21:57.911Z,4.30
2023-03-04T20:24:26.120Z,4.30
2023-03-04T20:26:53.445Z,4.20
2023-03-04T20:29:20.373Z,4.30
2023-03-04T20:31:47.338Z,4.20
2023-03-04T20:34:14.769Z,4.20
2023-03-04T20:36:42.146Z,4.20
2023-03-04T20:39:27.050Z,4.20
2023-03-04T20:41:56.321Z,4.20
2023-03-04T20:44:23.268Z,4.20
2023-03-04T20:46:50.163Z,4.20
2023-03-04T20:49:24.047Z,4.10
2023-03-04T20:51:56.132Z,4.10
2023-03-04T20:54:23.413Z,4.10
2023-03-04T20:56:50.364Z,4.00
2023-03-04T20:59:17.357Z,4.00
2023-03-04T21:01:46.083Z,4.00
2023-03-04T21:04:13.053Z,4.00
2023-03-04T21:06:40.575Z,4.00
2023-03-04T21:09:11.693Z,4.00
2023-03-04T21:11:41.688Z,4.00
2023-03-04T21:14:29.350Z,4.00
2023-03-04T21:17:02.083Z,4.00
2023-03-04T21:19:32.130Z,4.00
2023-03-04T21:22:00.954Z,4.00
2023-03-04T21:24:30.584Z,4.00
2023-03-04T21:26:57.893Z,4.00
2023-03-04T21:29:26.989Z,4.00
2023-03-04T21:32:20.944Z,4.00
2023-03-04T21:34:52.011Z,4.00
2023-03-04T21:37:20.272Z,3.90
2023-03-04T21:39:47.132Z,3.90
2023-03-04T21:42:14.388Z,3.90
2023-03-04T21:44:50.500Z,3.90
2023-03-04T21:47:21.995Z,3.90
2023-03-04T21:49:48.945Z,3.90
2023-03-04T21:52:17.140Z,3.90
2023-03-04T21:54:44.166Z,3.90
2023-03-04T21:57:11.205Z,3.90
2023-03-04T21:59:39.098Z,3.90
2023-03-04T22:02:07.687Z,3.90
2023-03-04T22:04:34.620Z,3.90
2023-03-04T22:07:01.848Z,3.90
2023-03-04T22:09:28.713Z,3.80
2023-03-04T22:11:55.574Z,3.80
2023-03-04T22:14:22.516Z,3.80
2023-03-04T22:16:55.591Z,3.70
2023-03-04T22:19:24.999Z,3.70
2023-03-04T22:21:52.458Z,3.70
2023-03-04T22:24:20.098Z,3.60
2023-03-04T22:26:47.070Z,3.60
2023-03-04T22:29:14.043Z,3.60
2023-03-04T22:31:41.042Z,3.60
2023-03-04T22:34:09.103Z,3.60
2023-03-04T22:36:38.645Z,3.60
2023-03-04T22:39:08.640Z,3.60
2023-03-04T22:41:36.031Z,3.60
2023-03-04T22:44:03.419Z,3.60
2023-03-04T22:46:32.329Z,3.60
2023-03-04T22:49:01.621Z,3.60
2023-03-04T22:51:29.096Z,3.60
2023-03-04T22:53:56.394Z,3.60
2023-03-04T22:56:23.878Z,3.60
2023-03-04T22:58:51.310Z,3.60
2023-03-04T23:01:19.170Z,3.60
2023-03-04T23:03:48.718Z,3.60
2023-03-04T23:06:19.203Z,3.60
2023-03-04T23:08:48.234Z,3.60
2023-03-04T23:11:17.564Z,3.60
2023-03-04T23:13:44.824Z,3.60
2023-03-04T23:16:13.360Z,3.60
2023-03-04T23:18:41.720Z,3.60
2023-03-04T23:21:16.971Z,3.50
2023-03-04T23:23:44.610Z,3.50
2023-03-04T23:26:18.688Z,3.50
2023-03-04T23:28:46.059Z,3.50
2023-03-04T23:31:16.740Z,3.50
2023-03-04T23:33:44.674Z,3.50
2023-03-04T23:36:14.990Z,3.50
2023-03-04T23:38:44.669Z,3.50
2023-03-04T23:41:20.423Z,3.50
2023-03-04T23:43:48.003Z,3.50
2023-03-04T23:46:15.630Z,3.50
2023-03-04T23:48:46.243Z,3.50
2023-03-04T23:51:14.814Z,3.50
2023-03-04T23:53:41.783Z,3.50
2023-03-04T23:56:10.428Z,3.50
2023-03-04T23:58:37.584Z,3.50
